createdAt,value
2023-09-06T00:00:16.636Z,0.000000
2023-09-06T00:05:18.568Z,0.000000
2023-09-06T00:10:24.762Z,0.000000
2023-09-06T00:15:24.858Z,0.000000
2023-09-06T00:20:18.539Z,0.000000
2023-09-06T00:25:18.532Z,0.000000
2023-09-06T00:30:24.952Z,0.000000
2023-09-06T00:35:18.518Z,0.000000
2023-09-06T00:40:18.468Z,0.000000
2023-09-06T00:45:18.559Z,0.000000
2023-09-06T00:50:16.630Z,0.000000
2023-09-06T00:55:16.749Z,0.000000
2023-09-06T01:00:24.888Z,0.000000
2023-09-06T01:05:18.723Z,0.000000
2023-09-06T01:10:24.876Z,0.000000
2023-09-06T01:15:18.768Z,0.000000
2023-09-06T01:20:24.889Z,0.000000
2023-09-06T01:25:24.905Z,0.000000
2023-09-06T01:30:24.898Z,0.000000
2023-09-06T01:35:18.696Z,0.000000
2023-09-06T01:40:24.909Z,0.000000
2023-09-06T01:45:16.733Z,0.000000
2023-09-06T01:50:24.916Z,0.000000
2023-09-06T01:55:25.057Z,0.000000
2023-09-06T02:00:25.043Z,0.000000
2023-09-06T02:05:18.770Z,0.000000
2023-09-06T02:10:25.015Z,0.000000
2023-09-06T02:15:18.712Z,0.000000
2023-09-06T02:20:24.990Z,0.000000
2023-09-06T02:25:25.075Z,0.000000
2023-09-06T02:30:18.750Z,0.000000
2023-09-06T02:35:16.742Z,0.000000
2023-09-06T02:40:17.007Z,0.000000
2023-09-06T02:45:25.023Z,0.000000
2023-09-06T02:50:18.750Z,0.000000
2023-09-06T02:55:18.727Z,0.000000
2023-09-06T03:00:18.779Z,0.000000
2023-09-06T03:05:18.909Z,0.000000
2023-09-06T03:10:25.036Z,0.000000
2023-09-06T03:15:25.001Z,0.000000
2023-09-06T03:20:24.914Z,0.000000
2023-09-06T03:25:25.075Z,0.000000
2023-09-06T03:30:16.922Z,0.000000
2023-09-06T03:35:16.818Z,0.000000
2023-09-06T03:40:25.093Z,0.000000
2023-09-06T03:45:18.831Z,0.000000
2023-09-06T03:50:18.961Z,0.000000
2023-09-06T03:55:18.863Z,0.000000
2023-09-06T04:00:18.081Z,0.000000
2023-09-06T04:05:24.463Z,0.000000
2023-09-06T04:10:24.294Z,0.000000
2023-09-06T04:15:18.098Z,0.000000
2023-09-06T04:20:18.096Z,0.000000
2023-09-06T04:25:24.287Z,0.000000
2023-09-06T04:30:18.117Z,0.000000
2023-09-06T04:35:16.184Z,0.000000
2023-09-06T04:40:16.272Z,0.000000
2023-09-06T04:45:24.314Z,0.000000
2023-09-06T04:50:18.182Z,0.000000
2023-09-06T04:55:18.228Z,0.000000
2023-09-06T05:00:24.377Z,0.000000
2023-09-06T05:05:24.365Z,0.000000
2023-09-06T05:10:24.372Z,0.000000
2023-09-06T05:15:18.044Z,0.000000
2023-09-06T05:20:24.467Z,0.000000
2023-09-06T05:25:24.360Z,0.000000
2023-09-06T05:30:16.247Z,0.000000
2023-09-06T05:35:16.214Z,0.000000
2023-09-06T05:40:24.723Z,0.000000
2023-09-06T05:45:24.442Z,0.000000
2023-09-06T05:50:24.487Z,0.000000
2023-09-06T05:55:24.558Z,0.000000
2023-09-06T06:00:24.467Z,0.000000
2023-09-06T06:05:18.210Z,0.000000
2023-09-06T06:10:24.351Z,0.000000
2023-09-06T06:15:24.436Z,0.000000
2023-09-06T06:20:34.493Z,0.000000
2023-09-06T06:25:16.256Z,0.000000
2023-09-06T06:30:18.247Z,0.000000
2023-09-06T06:35:24.534Z,0.000000
2023-09-06T06:40:18.256Z,1.000000
2023-09-06T06:45:18.643Z,1.000000
2023-09-06T06:50:18.472Z,1.000000
2023-09-06T06:55:24.657Z,2.000000
2023-09-06T07:00:24.581Z,2.000000
2023-09-06T07:05:18.311Z,1.000000
2023-09-06T07:10:24.396Z,1.000000
2023-09-06T07:15:16.403Z,2.000000
2023-09-06T07:20:16.423Z,1.000000
2023-09-06T07:25:18.369Z,2.000000
2023-09-06T07:30:18.377Z,2.000000
2023-09-06T07:35:24.663Z,2.000000
2023-09-06T07:40:18.448Z,2.000000
2023-09-06T07:45:24.566Z,2.000000
2023-09-06T07:50:18.393Z,3.000000
2023-09-06T07:55:24.539Z,2.000000
2023-09-06T08:00:24.768Z,2.000000
2023-09-06T08:05:18.392Z,2.000000
2023-09-06T08:10:16.325Z,2.000000
2023-09-06T08:15:18.409Z,2.000000
2023-09-06T08:20:18.372Z,2.000000
2023-09-06T08:25:18.404Z,3.000000
2023-09-06T08:30:24.707Z,3.000000
2023-09-06T08:35:24.649Z,3.000000
2023-09-06T08:40:18.388Z,2.000000
2023-09-06T08:45:18.429Z,2.000000
2023-09-06T08:50:24.768Z,3.000000
2023-09-06T08:55:18.362Z,3.000000
2023-09-06T09:00:16.601Z,3.000000
2023-09-06T09:05:21.230Z,2.000000
2023-09-06T09:10:24.728Z,3.000000
2023-09-06T09:15:24.692Z,2.000000
2023-09-06T09:20:24.698Z,2.000000
2023-09-06T09:25:18.458Z,2.000000
2023-09-06T09:30:18.545Z,2.000000
2023-09-06T09:35:18.515Z,2.000000
2023-09-06T09:40:18.463Z,2.000000
2023-09-06T09:45:24.872Z,2.000000
2023-09-06T09:50:18.597Z,4.000000
2023-09-06T09:55:16.650Z,1.000000
2023-09-06T10:00:16.719Z,0.000000
2023-09-06T10:05:24.960Z,0.000000
2023-09-06T10:10:24.799Z,0.000000
2023-09-06T10:15:18.598Z,1.000000
2023-09-06T10:20:18.622Z,1.000000
2023-09-06T10:25:24.831Z,0.000000
2023-09-06T10:30:18.694Z,0.000000
2023-09-06T10:35:18.534Z,1.000000
2023-09-06T10:40:24.855Z,0.000000
2023-09-06T10:45:24.767Z,0.000000
2023-09-06T10:50:16.645Z,0.000000
2023-09-06T10:55:24.979Z,0.000000
2023-09-06T11:00:18.647Z,0.000000
2023-09-06T11:05:24.898Z,0.000000
2023-09-06T11:10:18.708Z,0.000000
2023-09-06T11:15:18.663Z,0.000000
2023-09-06T11:20:25.079Z,0.000000
2023-09-06T11:25:18.707Z,0.000000
2023-09-06T11:30:18.697Z,1.000000
2023-09-06T11:35:18.765Z,1.000000
2023-09-06T11:40:16.801Z,1.000000
2023-09-06T11:45:16.696Z,0.000000
2023-09-06T11:50:24.876Z,1.000000
2023-09-06T11:55:18.661Z,0.000000
2023-09-06T12:00:25.074Z,2.000000
2023-09-06T12:05:32.147Z,2.000000
2023-09-06T12:10:25.010Z,2.000000
2023-09-06T12:15:18.701Z,2.000000
2023-09-06T12:20:18.688Z,3.000000
2023-09-06T12:25:25.079Z,1.000000
2023-09-06T12:30:18.773Z,1.000000
2023-09-06T12:35:16.994Z,2.000000
2023-09-06T12:40:25.021Z,3.000000
2023-09-06T12:45:25.103Z,3.000000
2023-09-06T12:50:18.884Z,3.000000
2023-09-06T12:55:25.041Z,2.000000
2023-09-06T13:00:24.963Z,1.000000
2023-09-06T13:05:18.887Z,0.000000
2023-09-06T13:10:18.801Z,0.000000
2023-09-06T13:15:18.740Z,1.000000
2023-09-06T13:20:25.020Z,1.000000
2023-09-06T13:25:16.876Z,1.000000
2023-09-06T13:30:16.818Z,1.000000
2023-09-06T13:35:25.092Z,2.000000
2023-09-06T13:40:25.017Z,1.000000
2023-09-06T13:45:18.917Z,1.000000
2023-09-06T13:50:25.119Z,2.000000
2023-09-06T13:55:25.073Z,1.000000
2023-09-06T14:00:25.028Z,1.000000
2023-09-06T14:05:25.109Z,1.000000
2023-09-06T14:10:18.956Z,3.000000
2023-09-06T14:15:25.084Z,3.000000
2023-09-06T14:20:16.979Z,2.000000
2023-09-06T14:25:16.909Z,1.000000
2023-09-06T14:30:18.981Z,1.000000
2023-09-06T14:35:25.145Z,1.000000
2023-09-06T14:40:25.160Z,1.000000
2023-09-06T14:45:27.493Z,1.000000
2023-09-06T14:50:18.918Z,1.000000
2023-09-06T14:55:25.263Z,2.000000
2023-09-06T15:00:25.143Z,2.000000
2023-09-06T15:05:18.923Z,1.000000
2023-09-06T15:10:18.907Z,1.000000
2023-09-06T15:15:17.124Z,2.000000
2023-09-06T15:20:25.071Z,3.000000
2023-09-06T15:25:26.987Z,2.000000
2023-09-06T15:30:19.066Z,1.000000
2023-09-06T15:35:25.250Z,0.000000
2023-09-06T15:40:25.174Z,1.000000
2023-09-06T15:45:18.959Z,2.000000
2023-09-06T15:50:25.676Z,1.000000
2023-09-06T15:55:25.239Z,2.000000
2023-09-06T16:00:32.441Z,1.000000
2023-09-06T16:05:17.119Z,0.000000
2023-09-06T16:10:17.027Z,2.000000
2023-09-06T16:15:19.510Z,1.000000
2023-09-06T16:20:25.247Z,0.000000
2023-09-06T16:25:19.008Z,0.000000
2023-09-06T16:30:25.369Z,1.000000
2023-09-06T16:35:25.185Z,1.000000
2023-09-06T16:40:25.308Z,1.000000
2023-09-06T16:45:25.387Z,3.000000
2023-09-06T16:50:25.353Z,2.000000
2023-09-06T16:55:19.132Z,2.000000
2023-09-06T17:00:17.101Z,1.000000
2023-09-06T17:05:17.061Z,2.000000
2023-09-06T17:10:25.464Z,3.000000
2023-09-06T17:15:25.427Z,5.000000
2023-09-06T17:20:25.350Z,5.000000
2023-09-06T17:25:25.280Z,3.000000
2023-09-06T17:30:25.370Z,3.000000
2023-09-06T17:35:19.243Z,3.000000
2023-09-06T17:40:25.658Z,3.000000
2023-09-06T17:45:25.387Z,6.000000
2023-09-06T17:50:25.409Z,5.000000
2023-09-06T17:55:17.215Z,6.000000
2023-09-06T18:00:19.178Z,5.000000
2023-09-06T18:05:19.414Z,6.000000
2023-09-06T18:10:25.437Z,8.000000
2023-09-06T18:15:25.413Z,6.000000
2023-09-06T18:20:25.452Z,6.000000
2023-09-06T18:25:19.444Z,6.000000
2023-09-06T18:30:19.217Z,1.000000
2023-09-06T18:35:25.436Z,4.000000
2023-09-06T18:40:25.503Z,5.000000
2023-09-06T18:45:17.216Z,6.000000
2023-09-06T18:50:17.609Z,3.000000
2023-09-06T18:55:25.533Z,5.000000
2023-09-06T19:00:25.453Z,7.000000
2023-09-06T19:05:19.205Z,5.000000
2023-09-06T19:10:19.763Z,5.000000
2023-09-06T19:15:25.457Z,7.000000
2023-09-06T19:20:25.443Z,4.000000
2023-09-06T19:25:19.260Z,5.000000
2023-09-06T19:30:19.314Z,6.000000
2023-09-06T19:35:19.291Z,5.000000
2023-09-06T19:40:17.550Z,4.000000
2023-09-06T19:45:17.402Z,5.000000
2023-09-06T19:50:19.377Z,4.000000
2023-09-06T19:55:25.569Z,6.000000
2023-09-06T20:00:25.642Z,4.000000
2023-09-06T20:05:25.889Z,5.000000
2023-09-06T20:10:25.551Z,5.000000
2023-09-06T20:15:25.565Z,4.000000
2023-09-06T20:20:19.420Z,4.000000
2023-09-06T20:25:25.637Z,3.000000
2023-09-06T20:30:19.324Z,3.000000
2023-09-06T20:35:17.630Z,5.000000
2023-09-06T20:40:25.639Z,6.000000
2023-09-06T20:45:25.616Z,5.000000
2023-09-06T20:50:25.649Z,4.000000
2023-09-06T20:55:19.415Z,3.000000
2023-09-06T21:00:19.434Z,2.000000
2023-09-06T21:05:19.465Z,3.000000
2023-09-06T21:10:25.611Z,2.000000
2023-09-06T21:15:19.424Z,1.000000
2023-09-06T21:20:19.535Z,2.000000
2023-09-06T21:25:17.542Z,2.000000
2023-09-06T21:30:17.474Z,2.000000
2023-09-06T21:35:19.487Z,0.000000
2023-09-06T21:40:19.564Z,0.000000
2023-09-06T21:45:19.511Z,0.000000
2023-09-06T21:50:25.796Z,0.000000
2023-09-06T21:55:25.681Z,0.000000
2023-09-06T22:00:17.523Z,0.000000
2023-09-06T22:05:15.638Z,0.000000
2023-09-06T22:10:19.636Z,0.000000
2023-09-06T22:15:23.837Z,0.000000
2023-09-06T22:20:17.520Z,0.000000
2023-09-06T22:25:24.012Z,0.000000
2023-09-06T22:30:18.584Z,0.000000
2023-09-06T22:35:18.536Z,0.000000
2023-09-06T22:40:16.663Z,0.000000
2023-09-06T22:45:18.558Z,0.000000
2023-09-06T22:50:18.589Z,0.000000
2023-09-06T22:55:18.601Z,0.000000
2023-09-06T23:00:18.626Z,0.000000
2023-09-06T23:05:18.627Z,0.000000
2023-09-06T23:10:18.624Z,0.000000
2023-09-06T23:15:24.742Z,0.000000
2023-09-06T23:20:24.851Z,0.000000
2023-09-06T23:25:24.806Z,0.000000
2023-09-06T23:30:16.721Z,0.000000
2023-09-06T23:35:16.757Z,0.000000
2023-09-06T23:40:24.906Z,0.000000
2023-09-06T23:45:18.659Z,0.000000
2023-09-06T23:50:25.014Z,0.000000
2023-09-06T23:55:24.944Z,0.000000
